Time;durP1;ratioP1;P1;durP2;ratioP2;P2;SDS_P1;SDS_P2;PMS_P1;PMS_P2;Temp;Humidity;BMP_temperature;BMP_pressure;BME280_temperature;BME280_humidity;BME280_pressure;Samples;Min_cycle;Max_cycle;Signal;HPM_P1;HPM_P2
2022/03/10 00:00:08;;;;;;;55.38;27.88;;;;;;;;;;6266111;28;20417;-71
2022/03/10 00:03:10;;;;;;;56.22;27.10;;;;;;;;;;6262462;28;20598;-71
2022/03/10 00:06:11;;;;;;;54.47;26.27;;;;;;;;;;6274861;28;20045;-71
2022/03/10 00:09:13;;;;;;;53.70;25.90;;;;;;;;;;6274503;28;20175;-71
2022/03/10 00:12:14;;;;;;;56.67;27.70;;;;;;;;;;6274667;28;20140;-71
2022/03/10 00:15:20;;;;;;;52.83;27.65;;;;;;;;;;6272892;28;20191;-71
2022/03/10 00:18:21;;;;;;;53.13;27.10;;;;;;;;;;6269517;28;20071;-71
2022/03/10 00:21:23;;;;;;;52.35;27.80;;;;;;;;;;6263808;28;20053;-71
2022/03/10 00:24:24;;;;;;;52.63;28.25;;;;;;;;;;6259531;28;20320;-71
2022/03/10 00:27:26;;;;;;;53.33;26.70;;;;;;;;;;6270220;28;20098;-71
2022/03/10 00:30:29;;;;;;;54.60;27.23;;;;;;;;;;6273364;28;20423;-71
2022/03/10 00:33:30;;;;;;;57.03;26.85;;;;;;;;;;6267935;28;20054;-71
2022/03/10 00:36:32;;;;;;;55.05;27.92;;;;;;;;;;6270679;28;20049;-71
2022/03/10 00:39:33;;;;;;;48.92;27.70;;;;;;;;;;6269193;28;20117;-71
2022/03/10 00:42:38;;;;;;;58.78;28.55;;;;;;;;;;6279067;28;20041;-71
2022/03/10 00:45:42;;;;;;;53.63;29.25;;;;;;;;;;6277421;28;20124;-71
2022/03/10 00:48:43;;;;;;;55.30;28.42;;;;;;;;;;6272354;28;20192;-71
2022/03/10 00:51:48;;;;;;;60.45;28.90;;;;;;;;;;6269770;28;20048;-71
2022/03/10 00:54:50;;;;;;;56.80;28.60;;;;;;;;;;6266414;28;20523;-71
2022/03/10 00:57:51;;;;;;;55.17;27.33;;;;;;;;;;6262194;28;20083;-71
2022/03/10 01:00:55;;;;;;;52.17;27.23;;;;;;;;;;6257416;28;20076;-71
2022/03/10 01:03:56;;;;;;;61.05;30.40;;;;;;;;;;6257891;28;20052;-71
2022/03/10 01:06:58;;;;;;;56.20;30.13;;;;;;;;;;6262281;28;20109;-71
2022/03/10 01:09:59;;;;;;;55.65;27.52;;;;;;;;;;6273221;28;20126;-71
2022/03/10 01:13:01;;;;;;;64.05;29.95;;;;;;;;;;6269227;28;20135;-71
2022/03/10 01:16:04;;;;;;;60.40;29.60;;;;;;;;;;6278558;28;20062;-69
2022/03/10 01:19:08;;;;;;;53.33;28.53;;;;;;;;;;6277687;28;20045;-69
2022/03/10 01:22:09;;;;;;;55.87;28.27;;;;;;;;;;6275015;28;20053;-69
2022/03/10 01:25:11;;;;;;;58.88;29.08;;;;;;;;;;6274313;28;20620;-72
2022/03/10 01:28:13;;;;;;;62.17;29.10;;;;;;;;;;6268421;28;20123;-71
2022/03/10 01:31:16;;;;;;;60.83;29.25;;;;;;;;;;6265227;28;20076;-71
2022/03/10 01:34:17;;;;;;;57.95;29.65;;;;;;;;;;6260552;28;20052;-71
2022/03/10 01:37:19;;;;;;;57.72;28.52;;;;;;;;;;6263104;28;20129;-71
2022/03/10 01:40:21;;;;;;;62.22;29.65;;;;;;;;;;6256809;28;20144;-71
2022/03/10 01:43:22;;;;;;;52.90;27.25;;;;;;;;;;6255609;28;20128;-72
2022/03/10 01:46:26;;;;;;;55.05;28.02;;;;;;;;;;6251752;28;20049;-72
2022/03/10 01:49:27;;;;;;;57.22;27.88;;;;;;;;;;6271257;28;20083;-71
2022/03/10 01:52:31;;;;;;;58.22;28.08;;;;;;;;;;6283111;28;20048;-71
2022/03/10 01:55:32;;;;;;;44.23;20.70;;;;;;;;;;6283315;28;20056;-71
2022/03/10 01:58:34;;;;;;;58.88;28.42;;;;;;;;;;6277321;28;20467;-70
2022/03/10 02:01:37;;;;;;;57.95;28.33;;;;;;;;;;6272618;28;20058;-71
2022/03/10 02:04:39;;;;;;;52.58;27.27;;;;;;;;;;6267739;28;20360;-71
2022/03/10 02:11:01;;;;;;;58.58;27.90;;;;;;;;;;6263623;28;20045;-71
2022/03/10 02:17:19;;;;;;;56.45;28.73;;;;;;;;;;6258690;28;20055;-71
2022/03/10 02:17:24;;;;;;;58.20;27.70;;;;;;;;;;6256034;28;20041;-69
2022/03/10 02:20:26;;;;;;;58.17;28.60;;;;;;;;;;6256685;28;20059;-70
2022/03/10 02:23:29;;;;;;;61.05;28.08;;;;;;;;;;6251201;28;20500;-70
2022/03/10 02:26:30;;;;;;;56.00;27.77;;;;;;;;;;6267226;28;20133;-70
2022/03/10 02:29:32;;;;;;;53.13;26.95;;;;;;;;;;6284883;28;20695;-70
2022/03/10 02:32:34;;;;;;;53.25;27.63;;;;;;;;;;6271015;28;20049;-70
2022/03/10 02:35:35;;;;;;;58.13;28.73;;;;;;;;;;6275257;28;20548;-70
2022/03/10 02:38:38;;;;;;;56.17;28.60;;;;;;;;;;6272953;28;20057;-70
2022/03/10 02:41:39;;;;;;;56.63;26.88;;;;;;;;;;6268491;28;20078;-70
2022/03/10 02:44:42;;;;;;;57.67;28.10;;;;;;;;;;6265456;28;20172;-70
2022/03/10 02:47:43;;;;;;;55.58;27.27;;;;;;;;;;6262234;28;20059;-70
2022/03/10 02:50:46;;;;;;;50.80;26.15;;;;;;;;;;6257632;28;20406;-70
2022/03/10 02:53:49;;;;;;;54.38;26.65;;;;;;;;;;6255355;28;20149;-70
2022/03/10 02:56:50;;;;;;;51.75;26.48;;;;;;;;;;6254719;28;20533;-70
2022/03/10 02:59:52;;;;;;;58.40;27.55;;;;;;;;;;6257473;28;20049;-70
2022/03/10 03:02:53;;;;;;;52.75;25.63;;;;;;;;;;6264155;28;20075;-70
2022/03/10 03:05:55;;;;;;;54.80;25.27;;;;;;;;;;6266672;28;20057;-70
2022/03/10 03:08:58;;;;;;;52.13;26.45;;;;;;;;;;6280993;28;20047;-69
2022/03/10 03:11:59;;;;;;;48.30;25.65;;;;;;;;;;6278972;28;20122;-70
2022/03/10 03:15:01;;;;;;;53.15;25.98;;;;;;;;;;6270406;28;20506;-70
2022/03/10 03:18:02;;;;;;;49.05;26.17;;;;;;;;;;6274123;28;20049;-70
2022/03/10 03:21:04;;;;;;;53.03;26.58;;;;;;;;;;6269516;28;20049;-70
2022/03/10 03:24:07;;;;;;;52.10;25.30;;;;;;;;;;6264842;28;20045;-70
2022/03/10 03:27:09;;;;;;;45.35;24.23;;;;;;;;;;6256822;28;20049;-70
2022/03/10 03:30:12;;;;;;;51.60;25.27;;;;;;;;;;6254210;28;20176;-70
2022/03/10 03:33:13;;;;;;;54.58;25.52;;;;;;;;;;6253873;28;20041;-70
2022/03/10 03:36:15;;;;;;;55.53;25.50;;;;;;;;;;6267839;28;20041;-70
2022/03/10 03:39:18;;;;;;;53.92;26.58;;;;;;;;;;6265311;28;20481;-70
2022/03/10 03:42:20;;;;;;;52.10;25.90;;;;;;;;;;6263227;28;20041;-70
2022/03/10 03:45:22;;;;;;;52.65;25.80;;;;;;;;;;6266799;28;20056;-69
2022/03/10 03:48:24;;;;;;;49.35;24.98;;;;;;;;;;6281011;28;20083;-70
2022/03/10 03:51:26;;;;;;;53.80;25.10;;;;;;;;;;6278536;28;20093;-70
2022/03/10 03:54:30;;;;;;;55.08;26.20;;;;;;;;;;6277430;28;20060;-70
2022/03/10 03:57:31;;;;;;;51.47;25.97;;;;;;;;;;6274689;28;20178;-70
2022/03/10 04:00:34;;;;;;;53.50;26.42;;;;;;;;;;6270992;28;20140;-70
2022/03/10 04:03:36;;;;;;;53.78;25.65;;;;;;;;;;6268346;28;20551;-70
2022/03/10 04:06:37;;;;;;;55.67;26.80;;;;;;;;;;6266727;28;20046;-70
2022/03/10 04:09:40;;;;;;;52.20;26.75;;;;;;;;;;6266916;28;20687;-70
2022/03/10 04:12:42;;;;;;;56.97;26.77;;;;;;;;;;6272254;28;20053;-70
2022/03/10 04:15:43;;;;;;;64.50;29.30;;;;;;;;;;6275913;28;20180;-70
2022/03/10 04:18:45;;;;;;;59.47;28.55;;;;;;;;;;6269807;28;20068;-70
2022/03/10 04:21:46;;;;;;;58.45;28.00;;;;;;;;;;6266659;28;20132;-70
2022/03/10 04:24:49;;;;;;;55.63;28.90;;;;;;;;;;6264459;28;20052;-69
2022/03/10 04:27:53;;;;;;;59.90;29.10;;;;;;;;;;6276621;28;20045;-70
2022/03/10 04:30:55;;;;;;;56.55;30.10;;;;;;;;;;6276036;28;20041;-70
2022/03/10 04:33:56;;;;;;;62.13;30.08;;;;;;;;;;6271575;28;20061;-70
2022/03/10 04:36:58;;;;;;;63.95;29.65;;;;;;;;;;6271208;28;20114;-70
2022/03/10 04:40:01;;;;;;;65.20;29.95;;;;;;;;;;6267322;28;20520;-70
2022/03/10 04:43:02;;;;;;;64.18;30.92;;;;;;;;;;6260448;28;20182;-70
2022/03/10 04:46:04;;;;;;;60.80;28.88;;;;;;;;;;6278578;28;20532;-70
2022/03/10 04:49:05;;;;;;;57.53;27.77;;;;;;;;;;6274198;28;20625;-70
2022/03/10 04:52:07;;;;;;;63.85;31.27;;;;;;;;;;6274710;28;20052;-70
2022/03/10 04:55:11;;;;;;;60.92;30.40;;;;;;;;;;6268711;28;20123;-70
2022/03/10 04:58:13;;;;;;;57.45;29.70;;;;;;;;;;6265238;28;20129;-70
2022/03/10 05:01:14;;;;;;;64.30;30.30;;;;;;;;;;6264828;28;20125;-70
2022/03/10 05:04:16;;;;;;;57.70;29.83;;;;;;;;;;6262534;28;20050;-70
2022/03/10 05:07:17;;;;;;;61.08;29.08;;;;;;;;;;6265814;28;20059;-70
2022/03/10 05:10:20;;;;;;;63.40;29.73;;;;;;;;;;6271684;28;20110;-70
2022/03/10 05:13:22;;;;;;;61.60;29.20;;;;;;;;;;6272864;28;20127;-70
2022/03/10 05:16:24;;;;;;;57.38;28.17;;;;;;;;;;6267602;28;20409;-70
2022/03/10 05:19:25;;;;;;;58.45;28.83;;;;;;;;;;6269226;28;20176;-70
2022/03/10 05:22:42;;;;;;;55.50;29.08;;;;;;;;;;6282777;28;20056;-69
2022/03/10 05:25:45;;;;;;;60.67;29.05;;;;;;;;;;6278879;28;20488;-69
2022/03/10 05:28:47;;;;;;;58.17;28.92;;;;;;;;;;6269832;28;20128;-69
2022/03/10 05:31:48;;;;;;;59.35;30.48;;;;;;;;;;6270024;28;20037;-69
2022/03/10 05:34:50;;;;;;;62.80;29.25;;;;;;;;;;6265519;28;20145;-69
2022/03/10 05:37:51;;;;;;;62.25;28.60;;;;;;;;;;6262113;28;20497;-69
2022/03/10 05:40:54;;;;;;;62.78;29.40;;;;;;;;;;6256951;28;20198;-69
2022/03/10 05:43:56;;;;;;;61.47;29.83;;;;;;;;;;6253188;28;20041;-69
2022/03/10 05:46:57;;;;;;;57.63;29.25;;;;;;;;;;6259944;28;20051;-69
2022/03/10 05:49:59;;;;;;;64.15;29.98;;;;;;;;;;6267231;28;20049;-69
2022/03/10 05:53:01;;;;;;;69.50;29.67;;;;;;;;;;6263329;28;20076;-69
2022/03/10 05:56:04;;;;;;;63.58;29.00;;;;;;;;;;6283243;28;20049;-69
2022/03/10 05:59:06;;;;;;;61.47;29.53;;;;;;;;;;6272050;28;20041;-69
2022/03/10 06:02:07;;;;;;;68.22;30.20;;;;;;;;;;6273645;28;20158;-69
2022/03/10 06:05:09;;;;;;;65.70;29.73;;;;;;;;;;6272327;28;20463;-69
2022/03/10 06:08:11;;;;;;;64.55;30.27;;;;;;;;;;6266501;28;20377;-69
2022/03/10 06:11:14;;;;;;;53.10;27.13;;;;;;;;;;6260915;28;20480;-69
2022/03/10 06:14:17;;;;;;;64.32;29.33;;;;;;;;;;6261874;28;20045;-69
2022/03/10 06:17:20;;;;;;;56.40;28.37;;;;;;;;;;6266321;28;20041;-69
2022/03/10 06:20:21;;;;;;;62.60;29.88;;;;;;;;;;6252754;28;20101;-69
2022/03/10 06:23:23;;;;;;;56.42;28.30;;;;;;;;;;6250255;28;20113;-69
2022/03/10 06:26:26;;;;;;;62.58;30.80;;;;;;;;;;6248330;28;20622;-73
2022/03/10 06:29:27;;;;;;;65.18;28.80;;;;;;;;;;6276920;28;20094;-72
2022/03/10 06:32:29;;;;;;;57.33;29.35;;;;;;;;;;6286271;28;20133;-72
2022/03/10 06:35:31;;;;;;;61.78;30.08;;;;;;;;;;6280408;28;20356;-71
2022/03/10 06:38:32;;;;;;;57.42;28.23;;;;;;;;;;6271506;28;20057;-71
2022/03/10 06:41:35;;;;;;;58.72;28.77;;;;;;;;;;6271793;28;20056;-72
2022/03/10 06:44:37;;;;;;;61.78;28.20;;;;;;;;;;6271749;28;20171;-70
2022/03/10 06:47:40;;;;;;;58.53;27.55;;;;;;;;;;6267144;28;20048;-70
2022/03/10 06:50:42;;;;;;;57.83;27.65;;;;;;;;;;6259728;28;20505;-71
2022/03/10 06:53:43;;;;;;;56.95;27.83;;;;;;;;;;6257106;28;20077;-69
2022/03/10 06:56:46;;;;;;;53.22;26.98;;;;;;;;;;6257022;28;20052;-70
2022/03/10 06:59:48;;;;;;;58.72;28.88;;;;;;;;;;6254437;28;20139;-70
2022/03/10 07:02:50;;;;;;;53.53;28.42;;;;;;;;;;6251432;28;20126;-70
2022/03/10 07:05:51;;;;;;;60.00;29.83;;;;;;;;;;6264157;28;20045;-73
2022/03/10 07:08:53;;;;;;;58.17;28.50;;;;;;;;;;6281547;28;20048;-73
2022/03/10 07:11:58;;;;;;;57.58;28.70;;;;;;;;;;6279637;28;20049;-73
2022/03/10 07:15:00;;;;;;;59.20;29.27;;;;;;;;;;6271255;28;20163;-73
2022/03/10 07:18:01;;;;;;;55.55;29.25;;;;;;;;;;6267844;28;20376;-73
2022/03/10 07:21:04;;;;;;;56.00;29.48;;;;;;;;;;6269010;28;20053;-73
2022/03/10 07:24:06;;;;;;;63.03;30.02;;;;;;;;;;6271530;28;20510;-73
2022/03/10 07:27:09;;;;;;;63.92;30.92;;;;;;;;;;6261394;28;20114;-73
2022/03/10 07:30:11;;;;;;;61.88;31.58;;;;;;;;;;6259193;28;20050;-73
2022/03/10 07:33:13;;;;;;;63.03;31.55;;;;;;;;;;6259560;28;20053;-72
2022/03/10 07:36:15;;;;;;;61.63;30.77;;;;;;;;;;6256025;28;20126;-70
2022/03/10 07:39:16;;;;;;;63.17;31.02;;;;;;;;;;6261598;28;20115;-71
2022/03/10 07:42:19;;;;;;;64.93;31.95;;;;;;;;;;6272167;28;20144;-70
2022/03/10 07:45:21;;;;;;;68.68;32.83;;;;;;;;;;6272403;28;20449;-73
2022/03/10 07:48:22;;;;;;;61.35;32.10;;;;;;;;;;6280377;28;20675;-72
2022/03/10 07:51:24;;;;;;;61.17;33.33;;;;;;;;;;6283119;28;20044;-73
2022/03/10 07:54:25;;;;;;;62.13;32.92;;;;;;;;;;6277913;28;20581;-73
2022/03/10 07:57:28;;;;;;;66.45;34.60;;;;;;;;;;6274575;28;20049;-73
2022/03/10 08:00:32;;;;;;;70.88;34.63;;;;;;;;;;6274014;28;20412;-71
2022/03/10 08:03:33;;;;;;;62.77;33.33;;;;;;;;;;6271833;28;20053;-72
2022/03/10 08:06:35;;;;;;;63.42;32.40;;;;;;;;;;6266278;28;20488;-72
2022/03/10 08:09:37;;;;;;;70.97;36.75;;;;;;;;;;6265993;28;20053;-71
2022/03/10 08:12:39;;;;;;;73.57;34.78;;;;;;;;;;6257944;28;20088;-71
2022/03/10 08:15:43;;;;;;;68.13;33.90;;;;;;;;;;6273405;28;20493;-71
2022/03/10 08:18:45;;;;;;;66.97;36.20;;;;;;;;;;6272866;28;20175;-71
2022/03/10 08:21:47;;;;;;;68.90;35.92;;;;;;;;;;6271197;28;20053;-71
2022/03/10 08:24:49;;;;;;;68.03;36.88;;;;;;;;;;6265990;28;20045;-70
2022/03/10 08:27:52;;;;;;;68.20;36.22;;;;;;;;;;6277389;28;20126;-69
2022/03/10 08:30:53;;;;;;;65.95;35.70;;;;;;;;;;6279435;28;20095;-70
2022/03/10 08:33:55;;;;;;;71.70;37.05;;;;;;;;;;6271548;28;20182;-71
2022/03/10 08:36:57;;;;;;;74.40;36.72;;;;;;;;;;6272133;28;20172;-70
2022/03/10 08:39:58;;;;;;;73.07;34.63;;;;;;;;;;6269427;28;20131;-67
2022/03/10 08:43:01;;;;;;;68.88;38.17;;;;;;;;;;6267252;28;20132;-70
2022/03/10 08:46:03;;;;;;;66.07;34.03;;;;;;;;;;6261079;28;20120;-69
2022/03/10 08:49:04;;;;;;;60.63;35.13;;;;;;;;;;6269804;28;20037;-70
2022/03/10 08:52:07;;;;;;;68.78;36.75;;;;;;;;;;6277276;28;20076;-71
2022/03/10 08:55:10;;;;;;;69.63;35.85;;;;;;;;;;6273295;28;20137;-70
2022/03/10 08:58:13;;;;;;;64.55;37.10;;;;;;;;;;6270392;28;20061;-70
2022/03/10 09:01:15;;;;;;;59.50;34.20;;;;;;;;;;6266185;28;20176;-70
2022/03/10 09:04:17;;;;;;;58.10;33.92;;;;;;;;;;6261332;28;20140;-72
2022/03/10 09:07:18;;;;;;;59.55;34.25;;;;;;;;;;6273176;28;20060;-71
2022/03/10 09:10:20;;;;;;;60.70;34.72;;;;;;;;;;6272640;28;20114;-73
2022/03/10 09:13:23;;;;;;;58.85;34.53;;;;;;;;;;6274857;28;20135;-71
2022/03/10 09:16:24;;;;;;;55.00;33.00;;;;;;;;;;6270622;28;20145;-71
2022/03/10 09:19:26;;;;;;;57.08;31.92;;;;;;;;;;6266855;28;20151;-71
2022/03/10 09:22:28;;;;;;;54.25;31.15;;;;;;;;;;6262060;28;20053;-70
2022/03/10 09:25:29;;;;;;;49.83;29.88;;;;;;;;;;6279792;28;20056;-71
2022/03/10 09:28:32;;;;;;;49.10;30.38;;;;;;;;;;6278120;28;20049;-71
2022/03/10 09:31:34;;;;;;;47.55;30.20;;;;;;;;;;6275670;28;20198;-69
2022/03/10 09:34:35;;;;;;;49.88;31.02;;;;;;;;;;6270305;28;20045;-70
2022/03/10 09:37:37;;;;;;;48.38;30.48;;;;;;;;;;6268211;28;20139;-71
2022/03/10 09:40:39;;;;;;;51.40;31.05;;;;;;;;;;6265770;28;20183;-71
2022/03/10 09:43:42;;;;;;;50.35;30.42;;;;;;;;;;6258831;28;20177;-70
2022/03/10 09:46:47;;;;;;;46.03;29.90;;;;;;;;;;6261896;28;20404;-72
2022/03/10 09:49:48;;;;;;;51.42;32.15;;;;;;;;;;6271787;28;20115;-71
2022/03/10 09:52:50;;;;;;;51.75;30.48;;;;;;;;;;6273934;28;20102;-71
2022/03/10 09:55:52;;;;;;;52.67;30.90;;;;;;;;;;6267494;28;20128;-71
2022/03/10 09:58:55;;;;;;;50.40;31.55;;;;;;;;;;6266048;28;20607;-72
2022/03/10 10:01:57;;;;;;;48.40;30.57;;;;;;;;;;6279609;28;20128;-71
2022/03/10 10:04:58;;;;;;;45.45;29.90;;;;;;;;;;6277126;28;20124;-72
2022/03/10 10:08:01;;;;;;;51.00;30.58;;;;;;;;;;6272654;28;20109;-72
2022/03/10 10:11:03;;;;;;;46.65;30.90;;;;;;;;;;6265954;28;20065;-72
2022/03/10 10:14:06;;;;;;;45.65;30.08;;;;;;;;;;6263599;28;20076;-72
2022/03/10 10:17:08;;;;;;;50.65;31.30;;;;;;;;;;6263497;28;20067;-71
2022/03/10 10:20:10;;;;;;;47.45;31.83;;;;;;;;;;6261306;28;20085;-72
2022/03/10 10:23:16;;;;;;;;;;;;;;;;;;6253988;28;20065;-71
2022/03/10 10:26:20;;;;;;;46.10;28.55;;;;;;;;;;6258480;28;20400;-72
2022/03/10 10:29:28;;;;;;;45.45;29.25;;;;;;;;;;6262265;28;20444;-72
2022/03/10 10:32:34;;;;;;;42.50;29.35;;;;;;;;;;6263429;28;20065;-71
2022/03/10 10:35:36;;;;;;;48.45;29.05;;;;;;;;;;6282492;28;20056;-71
2022/03/10 10:38:37;;;;;;;40.97;27.67;;;;;;;;;;6277511;28;20146;-72
2022/03/10 10:41:39;;;;;;;41.80;27.88;;;;;;;;;;6268611;28;20540;-71
2022/03/10 10:44:42;;;;;;;42.45;28.52;;;;;;;;;;6271873;28;20497;-71
2022/03/10 10:47:58;;;;;;;38.60;28.00;;;;;;;;;;6267701;28;20101;-72
2022/03/10 10:51:00;;;;;;;37.05;26.52;;;;;;;;;;6265160;28;20125;-71
2022/03/10 10:54:04;;;;;;;38.45;24.83;;;;;;;;;;6265031;28;20060;-71
2022/03/10 10:57:06;;;;;;;37.33;26.45;;;;;;;;;;6257714;28;20139;-71
2022/03/10 11:00:12;;;;;;;37.08;25.83;;;;;;;;;;6253805;28;20046;-71
2022/03/10 11:03:21;;;;;;;34.17;23.95;;;;;;;;;;6250182;28;20182;-71
2022/03/10 11:06:24;;;;;;;33.13;24.48;;;;;;;;;;6252644;28;20503;-71
2022/03/10 11:09:26;;;;;;;34.73;25.07;;;;;;;;;;6277616;28;20076;-71
2022/03/10 11:12:28;;;;;;;36.58;23.95;;;;;;;;;;6279836;28;20183;-71
2022/03/10 11:15:31;;;;;;;37.58;23.45;;;;;;;;;;6276743;28;20139;-71
2022/03/10 11:18:32;;;;;;;34.85;26.52;;;;;;;;;;6273037;28;20080;-72
2022/03/10 11:21:57;;;;;;;33.65;24.35;;;;;;;;;;6263763;28;20568;-72
2022/03/10 11:25:11;;;;;;;35.97;25.00;;;;;;;;;;6265810;28;20140;-72
2022/03/10 11:28:15;;;;;;;30.50;23.73;;;;;;;;;;6264998;28;20666;-72
2022/03/10 11:31:18;;;;;;;31.80;22.98;;;;;;;;;;6254457;28;20074;-71
2022/03/10 11:34:52;;;;;;;32.35;23.95;;;;;;;;;;6255092;28;20212;-71
2022/03/10 11:37:54;;;;;;;32.85;23.58;;;;;;;;;;6176944;28;20129;-71
2022/03/10 11:40:57;;;;;;;32.97;23.02;;;;;;;;;;6245328;28;20049;-72
2022/03/10 11:44:00;;;;;;;32.80;22.40;;;;;;;;;;6254478;28;20102;-72
2022/03/10 11:47:03;;;;;;;29.37;22.00;;;;;;;;;;6270140;28;20136;-72
2022/03/10 11:50:26;;;;;;;34.45;24.13;;;;;;;;;;6280996;28;20510;-71
2022/03/10 11:53:27;;;;;;;31.70;23.77;;;;;;;;;;6266944;28;20056;-72
2022/03/10 11:57:06;;;;;;;31.13;22.42;;;;;;;;;;6274513;28;20395;-72
2022/03/10 12:00:09;;;;;;;31.58;22.02;;;;;;;;;;6267139;28;20077;-71
2022/03/10 12:03:19;;;;;;;32.40;23.80;;;;;;;;;;6264547;28;20099;-71
2022/03/10 12:06:30;;;;;;;31.92;23.00;;;;;;;;;;6263870;28;20049;-71
2022/03/10 12:09:33;;;;;;;31.85;22.58;;;;;;;;;;6261229;28;20128;-71
2022/03/10 12:12:39;;;;;;;28.33;21.90;;;;;;;;;;6259567;28;20060;-71
2022/03/10 12:15:41;;;;;;;33.97;22.48;;;;;;;;;;6257781;28;20485;-71
2022/03/10 12:18:45;;;;;;;32.58;23.83;;;;;;;;;;6264170;28;20496;-71
2022/03/10 12:21:46;;;;;;;33.30;22.92;;;;;;;;;;6276426;28;20045;-71
2022/03/10 12:24:48;;;;;;;30.48;21.77;;;;;;;;;;6265246;28;20390;-71
2022/03/10 12:27:50;;;;;;;27.88;21.58;;;;;;;;;;6273831;28;20134;-70
2022/03/10 12:31:01;;;;;;;30.77;21.63;;;;;;;;;;6277915;28;20523;-71
2022/03/10 12:34:06;;;;;;;27.17;20.98;;;;;;;;;;6277870;28;20143;-71
2022/03/10 12:37:15;;;;;;;30.60;21.42;;;;;;;;;;6271111;28;20060;-69
2022/03/10 12:40:20;;;;;;;31.85;21.92;;;;;;;;;;6269666;28;20049;-71
2022/03/10 12:43:26;;;;;;;31.10;21.30;;;;;;;;;;6267984;28;20546;-71
2022/03/10 12:46:29;;;;;;;30.58;22.75;;;;;;;;;;6265650;28;20194;-70
2022/03/10 12:49:36;;;;;;;34.70;22.90;;;;;;;;;;6261337;28;20080;-70
2022/03/10 12:52:40;;;;;;;31.80;21.70;;;;;;;;;;6262926;28;20132;-70
2022/03/10 12:55:42;;;;;;;27.83;21.10;;;;;;;;;;6273948;28;20411;-71
2022/03/10 12:58:46;;;;;;;31.98;23.27;;;;;;;;;;6270970;28;20069;-68
2022/03/10 13:01:48;;;;;;;32.60;21.77;;;;;;;;;;6265027;28;20064;-70
2022/03/10 13:04:51;;;;;;;31.17;22.25;;;;;;;;;;6262300;28;20041;-69
2022/03/10 13:07:53;;;;;;;31.40;22.20;;;;;;;;;;6272610;28;20462;-71
2022/03/10 13:10:58;;;;;;;31.75;22.92;;;;;;;;;;6277187;28;20049;-73
2022/03/10 13:14:04;;;;;;;30.20;22.08;;;;;;;;;;6275143;28;20430;-72
2022/03/10 13:17:06;;;;;;;31.42;21.33;;;;;;;;;;6268988;28;20080;-73
2022/03/10 13:20:14;;;;;;;35.63;23.08;;;;;;;;;;6266929;28;20056;-71
2022/03/10 13:23:15;;;;;;;31.35;21.02;;;;;;;;;;6263773;28;20053;-73
2022/03/10 13:26:20;;;;;;;31.23;22.20;;;;;;;;;;6261159;28;20056;-73
2022/03/10 13:29:24;;;;;;;32.05;22.48;;;;;;;;;;6266486;28;20048;-70
2022/03/10 13:32:27;;;;;;;35.03;23.05;;;;;;;;;;6273665;28;20051;-69
2022/03/10 13:35:32;;;;;;;35.78;23.38;;;;;;;;;;6268541;28;20068;-70
2022/03/10 13:38:34;;;;;;;33.33;20.48;;;;;;;;;;6263278;28;20057;-69
2022/03/10 13:41:35;;;;;;;30.27;21.33;;;;;;;;;;6259895;28;20045;-69
2022/03/10 13:44:37;;;;;;;32.45;21.27;;;;;;;;;;6256064;28;20175;-70
2022/03/10 13:47:52;;;;;;;33.90;22.60;;;;;;;;;;6271597;28;20045;-71
2022/03/10 13:50:56;;;;;;;33.08;21.63;;;;;;;;;;6273753;28;20052;-70
2022/03/10 13:54:00;;;;;;;35.30;22.48;;;;;;;;;;6267053;28;20082;-70
2022/03/10 13:57:02;;;;;;;34.83;21.20;;;;;;;;;;6262760;28;20061;-70
2022/03/10 14:00:05;;;;;;;30.58;20.15;;;;;;;;;;6261076;28;20124;-69
2022/03/10 14:03:08;;;;;;;34.88;21.90;;;;;;;;;;6268316;28;20503;-69
2022/03/10 14:06:15;;;;;;;29.98;19.52;;;;;;;;;;6278163;28;20049;-70
2022/03/10 14:09:20;;;;;;;32.85;20.65;;;;;;;;;;6274357;28;20142;-70
2022/03/10 14:12:26;;;;;;;30.63;20.33;;;;;;;;;;6267766;28;20063;-70
2022/03/10 14:15:29;;;;;;;31.55;20.83;;;;;;;;;;6263192;28;20056;-71
2022/03/10 14:18:30;;;;;;;27.95;19.45;;;;;;;;;;6261331;28;20128;-70
2022/03/10 14:21:33;;;;;;;29.45;19.30;;;;;;;;;;6260959;28;20044;-70
2022/03/10 14:24:35;;;;;;;26.20;19.52;;;;;;;;;;6258811;28;20057;-70
2022/03/10 14:27:44;;;;;;;29.05;18.73;;;;;;;;;;6265933;28;20045;-70
2022/03/10 14:30:50;;;;;;;30.20;19.05;;;;;;;;;;6264930;28;20481;-70
2022/03/10 14:33:52;;;;;;;33.47;20.52;;;;;;;;;;6265707;28;20076;-70
2022/03/10 14:36:55;;;;;;;30.52;20.90;;;;;;;;;;6256140;28;20493;-71
2022/03/10 14:39:57;;;;;;;30.80;20.70;;;;;;;;;;6282109;28;20057;-70
2022/03/10 14:43:01;;;;;;;35.35;22.05;;;;;;;;;;6274378;28;20120;-71
2022/03/10 14:46:03;;;;;;;30.50;21.00;;;;;;;;;;6274704;28;20437;-71
2022/03/10 14:49:05;;;;;;;30.08;21.15;;;;;;;;;;6270745;28;20118;-70
2022/03/10 14:52:10;;;;;;;36.80;20.00;;;;;;;;;;6259994;28;20060;-71
2022/03/10 14:55:11;;;;;;;32.60;20.75;;;;;;;;;;6265006;28;20146;-70
2022/03/10 14:58:13;;;;;;;30.83;21.83;;;;;;;;;;6261811;28;20056;-71
2022/03/10 15:01:15;;;;;;;28.48;20.17;;;;;;;;;;6259931;28;20500;-70
2022/03/10 15:04:17;;;;;;;32.05;20.05;;;;;;;;;;6255564;28;20056;-71
2022/03/10 15:07:20;;;;;;;34.92;21.17;;;;;;;;;;6261977;28;20155;-71
2022/03/10 15:10:21;;;;;;;31.92;21.08;;;;;;;;;;6268031;28;20118;-71
2022/03/10 15:13:23;;;;;;;29.85;19.02;;;;;;;;;;6268769;28;20190;-71
2022/03/10 15:16:24;;;;;;;32.80;19.55;;;;;;;;;;6272708;28;20121;-71
2022/03/10 15:19:26;;;;;;;60.78;21.27;;;;;;;;;;6273857;28;20063;-71
2022/03/10 15:22:29;;;;;;;30.38;20.08;;;;;;;;;;6261881;28;20052;-70
2022/03/10 15:25:33;;;;;;;34.00;18.65;;;;;;;;;;6270052;28;20127;-71
2022/03/10 15:28:34;;;;;;;33.78;19.33;;;;;;;;;;6261760;28;20100;-70
2022/03/10 15:31:36;;;;;;;29.70;20.63;;;;;;;;;;6257222;28;20182;-71
2022/03/10 15:34:37;;;;;;;31.05;20.45;;;;;;;;;;6258467;28;20109;-71
2022/03/10 15:37:40;;;;;;;30.70;19.52;;;;;;;;;;6252118;28;20123;-70
2022/03/10 15:40:42;;;;;;;30.98;20.95;;;;;;;;;;6254889;28;20128;-71
2022/03/10 15:43:46;;;;;;;31.58;20.25;;;;;;;;;;6251440;28;20099;-70
2022/03/10 15:46:47;;;;;;;31.63;20.90;;;;;;;;;;6257011;28;20048;-70
2022/03/10 15:49:50;;;;;;;35.70;21.70;;;;;;;;;;6279273;28;20040;-70
2022/03/10 15:52:53;;;;;;;50.78;20.63;;;;;;;;;;6275218;28;20159;-70
2022/03/10 15:55:57;;;;;;;29.65;20.08;;;;;;;;;;6273939;28;20044;-72
2022/03/10 15:58:59;;;;;;;57.40;22.50;;;;;;;;;;6273771;28;20116;-71
2022/03/10 16:02:00;;;;;;;34.25;21.48;;;;;;;;;;6261164;28;20187;-71
2022/03/10 16:05:02;;;;;;;31.77;21.55;;;;;;;;;;6258847;28;20128;-72
2022/03/10 16:08:05;;;;;;;38.13;22.65;;;;;;;;;;6263438;28;20057;-72
2022/03/10 16:11:07;;;;;;;37.35;22.38;;;;;;;;;;6260697;28;20291;-71
2022/03/10 16:14:08;;;;;;;34.55;20.83;;;;;;;;;;6258716;28;20052;-71
2022/03/10 16:17:10;;;;;;;45.42;20.75;;;;;;;;;;6260706;28;20486;-72
2022/03/10 16:20:12;;;;;;;36.17;22.17;;;;;;;;;;6258968;28;20050;-71
2022/03/10 16:23:15;;;;;;;38.92;21.40;;;;;;;;;;6268466;28;20463;-71
2022/03/10 16:26:17;;;;;;;35.97;20.00;;;;;;;;;;6271740;28;20048;-72
2022/03/10 16:29:19;;;;;;;34.53;21.10;;;;;;;;;;6277171;28;20190;-70
2022/03/10 16:32:21;;;;;;;37.53;23.20;;;;;;;;;;6280946;28;20516;-71
2022/03/10 16:35:23;;;;;;;37.55;21.88;;;;;;;;;;6272589;28;20128;-73
2022/03/10 16:38:26;;;;;;;34.15;22.73;;;;;;;;;;6270594;28;20141;-72
2022/03/10 16:41:28;;;;;;;35.45;21.90;;;;;;;;;;6268859;28;20063;-73
2022/03/10 16:44:30;;;;;;;38.78;22.55;;;;;;;;;;6260079;28;20493;-73
2022/03/10 16:47:31;;;;;;;36.22;22.50;;;;;;;;;;6265850;28;20053;-73
2022/03/10 16:50:34;;;;;;;34.15;21.10;;;;;;;;;;6259360;28;20622;-72
2022/03/10 16:53:37;;;;;;;39.07;21.77;;;;;;;;;;6255800;28;20102;-72
2022/03/10 16:56:39;;;;;;;38.10;21.90;;;;;;;;;;6255915;28;20128;-73
2022/03/10 16:59:41;;;;;;;33.83;19.83;;;;;;;;;;6272638;28;20487;-71
2022/03/10 17:02:42;;;;;;;36.15;19.35;;;;;;;;;;6266885;28;20134;-72
2022/03/10 17:05:44;;;;;;;31.92;19.80;;;;;;;;;;6266229;28;20113;-74
2022/03/10 17:08:48;;;;;;;33.33;20.48;;;;;;;;;;6281087;28;20052;-72
2022/03/10 17:11:49;;;;;;;33.55;20.17;;;;;;;;;;6275687;28;20575;-73
2022/03/10 17:14:51;;;;;;;33.15;19.80;;;;;;;;;;6273927;28;20057;-73
2022/03/10 17:17:52;;;;;;;34.78;20.13;;;;;;;;;;6272872;28;20136;-72
2022/03/10 17:20:54;;;;;;;38.20;21.42;;;;;;;;;;6269637;28;20042;-72
2022/03/10 17:23:57;;;;;;;36.17;20.83;;;;;;;;;;6266951;28;20044;-73
2022/03/10 17:27:00;;;;;;;32.47;19.30;;;;;;;;;;6262367;28;20131;-73
2022/03/10 17:30:03;;;;;;;35.42;19.75;;;;;;;;;;6256131;28;20215;-73
2022/03/10 17:33:05;;;;;;;42.30;20.95;;;;;;;;;;6266499;28;20046;-73
2022/03/10 17:36:08;;;;;;;38.72;21.05;;;;;;;;;;6263999;28;20056;-73
2022/03/10 17:39:11;;;;;;;35.65;21.90;;;;;;;;;;6265667;28;20048;-73
2022/03/10 17:42:12;;;;;;;33.40;21.75;;;;;;;;;;6265669;28;20175;-72
2022/03/10 17:45:14;;;;;;;36.13;21.00;;;;;;;;;;6260866;28;20068;-72
2022/03/10 17:48:15;;;;;;;34.50;20.45;;;;;;;;;;6271563;28;20206;-72